Time;durP1;ratioP1;P1;durP2;ratioP2;P2;SDS_P1;SDS_P2;PMS_P1;PMS_P2;Temp;Humidity;BMP_temperature;BMP_pressure;BME280_temperature;BME280_humidity;BME280_pressure;Samples;Min_cycle;Max_cycle;Signal;HPM_P1;HPM_P2
2022/03/04 00:01:29;;;;;;;36.75;21.58;;;;;;;4.36;55.37;101918.63;7391352;19;20022;-65
2022/03/04 00:03:58;;;;;;;35.83;21.83;;;;;;;4.35;55.46;101922.06;7391142;19;20030;-65
2022/03/04 00:06:27;;;;;;;36.15;21.20;;;;;;;4.36;55.57;101924.66;7394469;19;20022;-65
2022/03/04 00:08:55;;;;;;;35.20;20.63;;;;;;;4.31;55.55;101927.28;7390009;19;20015;-65
2022/03/04 00:11:25;;;;;;;33.58;20.13;;;;;;;4.22;55.85;101922.06;7390741;19;20010;-65
2022/03/04 00:13:53;;;;;;;33.10;20.55;;;;;;;4.16;56.24;101932.44;7394659;19;20056;-65
2022/03/04 00:16:25;;;;;;;39.03;22.50;;;;;;;4.15;56.34;101939.38;7392081;19;20010;-65
2022/03/04 00:21:38;;;;;;;35.33;21.65;;;;;;;4.20;56.15;101944.56;7394868;19;20018;-65
2022/03/04 00:24:09;;;;;;;36.08;21.05;;;;;;;4.20;56.19;101944.56;7391512;19;20011;-65
2022/03/04 00:26:39;;;;;;;35.55;20.95;;;;;;;4.06;56.60;101944.53;7391494;19;20014;-65
2022/03/04 00:29:09;;;;;;;39.25;22.50;;;;;;;4.22;56.45;101947.16;7388244;19;20023;-65
2022/03/04 00:31:41;;;;;;;34.85;20.67;;;;;;;4.20;56.58;101947.16;7390579;19;20122;-64
2022/03/04 00:34:11;;;;;;;31.88;20.33;;;;;;;4.20;56.45;101948.88;7390642;19;20339;-64
2022/03/04 00:36:42;;;;;;;37.03;21.55;;;;;;;4.15;56.43;101951.47;7390763;19;20348;-64
2022/03/04 00:39:12;;;;;;;34.97;22.52;;;;;;;4.21;56.90;101953.19;7388596;19;20014;-65
2022/03/04 00:41:42;;;;;;;34.78;21.35;;;;;;;4.13;56.44;101955.81;7390756;19;20022;-64
2022/03/04 00:44:11;;;;;;;33.95;20.98;;;;;;;4.16;56.56;101958.41;7390326;19;20415;-65
2022/03/04 00:46:42;;;;;;;40.55;21.98;;;;;;;4.18;56.50;101958.38;7391670;19;20014;-64
2022/03/04 00:49:11;;;;;;;31.48;19.85;;;;;;;4.22;56.72;101962.72;7387228;19;20010;-65
2022/03/04 00:51:40;;;;;;;36.08;21.70;;;;;;;4.10;56.77;101954.06;7389976;19;20025;-65
2022/03/04 00:54:09;;;;;;;35.05;20.85;;;;;;;4.14;56.80;101957.50;7389888;19;20010;-65
2022/03/04 00:56:39;;;;;;;36.28;21.17;;;;;;;4.06;57.09;101960.09;7389898;19;20026;-65
2022/03/04 00:59:08;;;;;;;33.05;20.17;;;;;;;4.17;57.14;101967.91;7387981;19;20022;-64
2022/03/04 01:01:37;;;;;;;37.85;21.17;;;;;;;4.15;56.84;101954.94;7394332;19;20018;-65
2022/03/04 01:04:08;;;;;;;35.40;21.33;;;;;;;4.11;57.21;101958.41;7389768;19;20490;-65
2022/03/04 01:06:38;;;;;;;32.25;20.13;;;;;;;4.18;57.00;101958.38;7389614;19;20015;-64
2022/03/04 01:09:08;;;;;;;32.25;19.85;;;;;;;4.14;56.87;101954.91;7387799;19;20018;-64
2022/03/04 01:11:37;;;;;;;35.65;20.15;;;;;;;4.11;57.20;101957.50;7389747;19;20025;-64
2022/03/04 01:14:06;;;;;;;34.47;20.17;;;;;;;4.04;57.39;101963.56;7392068;19;20018;-65
2022/03/04 01:16:35;;;;;;;35.00;19.92;;;;;;;4.01;57.51;101958.38;7389342;19;20664;-65
2022/03/04 01:19:06;;;;;;;32.72;19.15;;;;;;;4.19;57.23;101955.78;7387375;19;20022;-64
2022/03/04 01:21:38;;;;;;;35.25;20.35;;;;;;;3.93;57.69;101959.22;7388356;19;20015;-65
2022/03/04 01:24:08;;;;;;;33.78;20.88;;;;;;;3.85;57.99;101960.94;7390078;19;20346;-64
2022/03/04 01:26:37;;;;;;;37.85;21.52;;;;;;;3.72;58.30;101957.44;7388974;19;20015;-64
2022/03/04 01:29:06;;;;;;;34.58;20.35;;;;;;;3.67;58.64;101964.34;7391213;19;20015;-64
2022/03/04 01:31:35;;;;;;;35.78;20.80;;;;;;;3.57;58.93;101960.00;7388938;19;20049;-65
2022/03/04 01:34:04;;;;;;;33.67;20.25;;;;;;;3.51;59.22;101950.50;7389867;19;20018;-66
2022/03/04 01:36:35;;;;;;;34.58;19.88;;;;;;;3.44;59.33;101951.34;7389524;19;20043;-64
2022/03/04 01:39:07;;;;;;;32.45;19.80;;;;;;;3.57;59.11;101947.06;7387514;19;20053;-64
2022/03/04 01:41:36;;;;;;;32.92;19.83;;;;;;;3.42;59.44;101953.03;7390613;19;20107;-65
2022/03/04 01:44:05;;;;;;;35.40;20.23;;;;;;;3.33;59.69;101946.09;7390736;19;20067;-64
2022/03/04 01:46:34;;;;;;;32.63;19.08;;;;;;;3.41;59.64;101948.69;7388700;19;20407;-67
2022/03/04 01:49:03;;;;;;;36.20;20.08;;;;;;;3.44;59.75;101944.41;7386922;19;20417;-60
2022/03/04 01:51:32;;;;;;;34.78;19.25;;;;;;;3.38;59.70;101943.50;7391445;19;20030;-60
2022/03/04 01:54:01;;;;;;;34.85;19.80;;;;;;;3.41;59.74;101939.22;7388765;19;20010;-61
2022/03/04 01:56:33;;;;;;;35.90;20.17;;;;;;;3.38;59.51;101938.34;7391295;19;20029;-61
2022/03/04 01:59:02;;;;;;;32.95;19.90;;;;;;;3.39;59.51;101938.34;7387435;19;20449;-61
2022/03/04 02:01:32;;;;;;;32.42;18.65;;;;;;;3.29;60.06;101937.47;7394876;19;20056;-62
2022/03/04 02:04:02;;;;;;;33.45;20.30;;;;;;;3.27;60.02;101931.41;7395568;19;20013;-62
2022/03/04 02:06:31;;;;;;;36.00;20.23;;;;;;;3.27;59.94;101930.53;7395034;19;20014;-58
2022/03/04 02:09:00;;;;;;;33.42;18.67;;;;;;;3.27;60.22;101935.72;7393885;19;20057;-62
2022/03/04 02:11:29;;;;;;;31.70;19.33;;;;;;;3.23;60.26;101931.38;7399317;19;20074;-55
2022/03/04 02:14:00;;;;;;;35.38;19.42;;;;;;;3.19;60.47;101937.41;7399088;19;20403;-56
2022/03/04 02:16:36;;;;;;;34.95;18.77;;;;;;;3.19;60.25;101937.41;7395932;19;20006;-56
2022/03/04 02:19:05;;;;;;;33.33;18.25;;;;;;;3.09;60.39;101933.91;7393990;19;20022;-62
2022/03/04 02:21:35;;;;;;;31.63;18.83;;;;;;;2.98;61.21;101941.63;7396736;19;20093;-62
2022/03/04 02:24:07;;;;;;;32.53;18.20;;;;;;;3.10;60.82;101940.81;7400237;19;20010;-55
2022/03/04 02:26:36;;;;;;;31.75;18.67;;;;;;;3.16;60.65;101939.97;7399868;19;20502;-59
2022/03/04 02:29:05;;;;;;;33.72;19.20;;;;;;;3.02;61.02;101940.75;7393995;19;20025;-58
2022/03/04 02:31:34;;;;;;;34.35;19.40;;;;;;;3.20;60.56;101942.59;7396292;19;20082;-56
2022/03/04 02:34:03;;;;;;;30.45;18.65;;;;;;;3.29;60.39;101942.66;7395563;19;20081;-59
2022/03/04 02:36:32;;;;;;;31.25;18.73;;;;;;;3.23;60.39;101944.34;7400753;19;20011;-60
2022/03/04 02:39:02;;;;;;;32.63;18.80;;;;;;;3.28;60.30;101937.44;7394612;19;20018;-61
2022/03/04 02:41:34;;;;;;;36.33;19.80;;;;;;;3.14;61.13;101939.97;7393719;19;20026;-63
2022/03/04 02:44:03;;;;;;;32.35;18.67;;;;;;;3.00;61.06;101928.69;7393191;19;20474;-60
2022/03/04 02:46:32;;;;;;;32.70;18.25;;;;;;;3.13;60.79;101939.97;7395881;19;20011;-58
2022/03/04 02:49:01;;;;;;;34.17;18.55;;;;;;;3.02;60.98;101934.72;7391756;19;20034;-61
2022/03/04 02:51:30;;;;;;;31.98;18.83;;;;;;;3.13;60.88;101933.06;7394203;19;20145;-60
2022/03/04 02:53:59;;;;;;;32.85;18.50;;;;;;;3.03;61.21;101937.31;7393782;19;20014;-59
2022/03/04 02:56:28;;;;;;;30.80;17.90;;;;;;;3.03;61.33;101946.81;7393927;19;20034;-61
2022/03/04 02:58:59;;;;;;;31.05;18.27;;;;;;;3.15;61.13;101941.69;7391479;19;20331;-61
2022/03/04 03:01:28;;;;;;;33.03;19.08;;;;;;;3.14;60.96;101939.09;7392864;19;20053;-60
2022/03/04 03:03:57;;;;;;;32.35;18.50;;;;;;;3.06;61.06;101936.47;7393942;19;20848;-57
2022/03/04 03:06:26;;;;;;;33.17;18.98;;;;;;;3.02;61.42;101940.75;7393171;19;20018;-62
2022/03/04 03:08:55;;;;;;;33.85;18.90;;;;;;;2.99;61.35;101942.47;7391094;19;20014;-59
2022/03/04 03:11:24;;;;;;;33.25;18.77;;;;;;;3.00;61.55;101946.81;7391734;19;20391;-62
2022/03/04 03:13:53;;;;;;;32.90;19.00;;;;;;;2.93;61.66;101953.66;7393924;19;20017;-57
2022/03/04 03:16:24;;;;;;;31.98;18.48;;;;;;;2.97;61.65;101950.25;7392514;19;20026;-60
2022/03/04 03:18:53;;;;;;;32.50;19.90;;;;;;;2.97;61.42;101950.25;7390948;19;20010;-57
2022/03/04 03:21:22;;;;;;;33.63;19.15;;;;;;;2.96;61.84;101956.28;7391871;19;20458;-61
2022/03/04 03:23:52;;;;;;;34.38;18.17;;;;;;;3.03;61.60;101955.44;7391892;19;20014;-62
2022/03/04 03:26:21;;;;;;;35.40;20.15;;;;;;;3.01;62.16;101951.09;7391978;19;20014;-62
2022/03/04 03:28:50;;;;;;;32.88;19.27;;;;;;;2.82;62.64;101944.97;7392368;19;20018;-63
2022/03/04 03:31:19;;;;;;;33.33;18.17;;;;;;;3.02;62.06;101955.44;7395524;19;20340;-58
2022/03/04 03:33:50;;;;;;;33.50;18.95;;;;;;;3.03;61.92;101947.69;7392069;19;20018;-62
2022/03/04 03:36:20;;;;;;;34.67;18.85;;;;;;;2.96;62.25;101947.66;7392349;19;20381;-60
2022/03/04 03:38:49;;;;;;;34.50;19.45;;;;;;;3.00;62.14;101949.41;7390439;19;20019;-63
2022/03/04 03:41:18;;;;;;;32.75;19.58;;;;;;;2.94;62.30;101951.09;7390845;19;20029;-61
2022/03/04 03:43:47;;;;;;;35.28;19.58;;;;;;;2.87;63.01;101961.41;7391656;19;20492;-59
2022/03/04 03:46:16;;;;;;;32.15;18.92;;;;;;;2.89;62.75;101952.78;7391830;19;20017;-61
2022/03/04 03:48:45;;;;;;;35.35;19.20;;;;;;;2.94;62.58;101953.69;7390008;19;20030;-60
2022/03/04 03:51:16;;;;;;;35.08;19.38;;;;;;;2.75;62.80;101954.41;7390855;19;20136;-59
2022/03/04 03:53:45;;;;;;;34.10;19.85;;;;;;;2.69;63.38;101950.06;7391348;19;20031;-59
2022/03/04 03:56:14;;;;;;;36.05;19.65;;;;;;;2.79;62.97;101950.13;7392746;19;20141;-62
2022/03/04 03:58:43;;;;;;;34.63;19.73;;;;;;;2.63;63.56;101951.75;7389246;19;20356;-62
2022/03/04 04:01:12;;;;;;;33.72;19.23;;;;;;;2.74;63.25;101950.97;7388430;19;20018;-62
2022/03/04 04:03:41;;;;;;;30.58;17.73;;;;;;;2.74;63.10;101958.72;7390196;19;20029;-62
2022/03/04 04:06:10;;;;;;;35.63;19.88;;;;;;;2.70;63.36;101961.28;7391415;19;20440;-62
2022/03/04 04:08:41;;;;;;;34.15;19.60;;;;;;;2.78;63.08;101962.22;7391813;19;20018;-61
2022/03/04 04:11:12;;;;;;;33.88;20.50;;;;;;;2.64;63.85;101958.69;7394079;19;20006;-61
2022/03/04 04:13:41;;;;;;;29.08;18.83;;;;;;;2.50;64.12;101961.16;7392955;19;20014;-62
2022/03/04 04:16:09;;;;;;;34.50;19.42;;;;;;;2.59;63.86;101967.28;7390702;19;20029;-56
2022/03/04 04:18:38;;;;;;;31.33;18.98;;;;;;;2.56;63.93;101966.38;7389661;19;20052;-61
2022/03/04 04:21:07;;;;;;;34.40;19.20;;;;;;;2.47;64.02;101964.56;7387341;19;20327;-62
2022/03/04 04:23:36;;;;;;;33.17;18.95;;;;;;;2.68;63.85;101965.56;7393377;19;20018;-61
2022/03/04 04:26:08;;;;;;;36.08;19.00;;;;;;;2.69;63.95;101964.72;7393963;19;20101;-59
2022/03/04 04:28:37;;;;;;;36.35;20.48;;;;;;;2.33;64.68;101973.94;7390998;19;20023;-59
2022/03/04 04:31:06;;;;;;;33.30;19.63;;;;;;;2.10;65.45;101968.56;7390541;19;20332;-59
2022/03/04 04:33:35;;;;;;;33.30;18.92;;;;;;;2.17;65.69;101970.38;7390503;19;20357;-61
2022/03/04 04:36:04;;;;;;;36.90;19.75;;;;;;;2.33;65.24;101969.63;7390175;19;20313;-63
2022/03/04 04:38:34;;;;;;;33.17;19.63;;;;;;;2.29;65.44;101979.94;7389915;19;20014;-63
2022/03/04 04:41:03;;;;;;;36.33;19.92;;;;;;;2.36;65.13;101977.41;7387427;19;20019;-60
2022/03/04 04:43:34;;;;;;;33.38;19.55;;;;;;;2.52;64.79;101974.94;7388972;19;20011;-63
2022/03/04 04:46:03;;;;;;;35.17;20.13;;;;;;;2.32;65.00;101967.91;7389011;19;20034;-61
2022/03/04 04:48:33;;;;;;;35.42;20.40;;;;;;;2.30;65.37;101968.75;7388613;19;20401;-62
2022/03/04 04:51:02;;;;;;;35.97;20.30;;;;;;;2.02;66.34;101984.00;7389932;19;20002;-58
2022/03/04 04:53:33;;;;;;;37.28;20.65;;;;;;;2.03;66.39;101983.16;7394489;19;20028;-61
2022/03/04 04:56:02;;;;;;;40.30;21.95;;;;;;;1.95;66.79;101985.66;7394941;19;20011;-63
2022/03/04 04:58:31;;;;;;;33.83;19.33;;;;;;;1.96;66.75;101976.19;7389659;19;20022;-62
2022/03/04 05:01:02;;;;;;;38.40;21.02;;;;;;;1.89;67.08;101981.28;7386558;19;20024;-61
2022/03/04 05:03:32;;;;;;;33.22;19.83;;;;;;;1.88;67.46;101981.28;7390537;19;20169;-63
2022/03/04 05:06:01;;;;;;;38.40;21.05;;;;;;;1.89;67.28;101980.41;7391789;19;20029;-62
2022/03/04 05:08:29;;;;;;;37.53;20.90;;;;;;;2.03;67.20;101977.97;7389253;19;20320;-55
2022/03/04 05:10:58;;;;;;;33.22;19.13;;;;;;;1.94;67.29;101983.06;7391897;19;20328;-62
2022/03/04 05:13:27;;;;;;;36.22;20.05;;;;;;;2.01;67.19;101972.78;7392270;19;20018;-62
2022/03/04 05:15:56;;;;;;;34.70;20.15;;;;;;;2.13;66.99;101977.22;7390233;19;20022;-61
2022/03/04 05:18:28;;;;;;;38.83;21.25;;;;;;;2.06;67.19;101988.34;7389233;19;20021;-62
2022/03/04 05:20:57;;;;;;;35.47;21.13;;;;;;;1.86;68.26;101983.84;7388632;19;20026;-59
2022/03/04 05:26:07;;;;;;;36.40;21.65;;;;;;;1.74;68.04;101978.53;7388172;19;20114;-62
2022/03/04 05:28:36;;;;;;;38.13;20.83;;;;;;;1.74;68.23;101983.72;7389721;19;20493;-56
2022/03/04 05:31:05;;;;;;;39.38;21.13;;;;;;;1.70;68.69;101981.94;7389057;19;20021;-58
2022/03/04 05:33:36;;;;;;;38.97;21.90;;;;;;;1.64;68.90;101990.50;7386757;19;20018;-58
2022/03/04 05:36:06;;;;;;;38.10;22.45;;;;;;;1.70;68.63;101989.69;7391294;19;20015;-57
2022/03/04 05:38:35;;;;;;;35.50;21.50;;;;;;;1.55;69.27;101995.56;7388467;19;20435;-61
2022/03/04 05:41:03;;;;;;;38.15;22.08;;;;;;;1.46;69.41;101992.84;7386792;19;20014;-62
2022/03/04 05:43:32;;;;;;;37.70;21.67;;;;;;;1.53;69.31;102000.72;7388014;19;20026;-56
2022/03/04 05:46:02;;;;;;;37.53;22.00;;;;;;;1.57;69.26;102005.91;7389206;19;20026;-59
2022/03/04 05:48:31;;;;;;;40.03;21.23;;;;;;;1.52;69.59;102001.56;7388103;19;20423;-61
2022/03/04 05:51:03;;;;;;;36.67;21.05;;;;;;;1.61;69.19;102007.69;7387716;19;20022;-59
2022/03/04 05:53:32;;;;;;;;;;;;;;;1.51;69.70;102017.03;7390077;19;20018;-58
2022/03/04 05:56:02;;;;;;;39.40;21.92;;;;;;;1.58;69.25;102013.66;7391047;19;19918;-61
2022/03/04 05:58:31;;;;;;;37.67;20.67;;;;;;;1.59;69.44;102011.94;7389476;19;20115;-60
2022/03/04 06:01:00;;;;;;;38.05;21.60;;;;;;;1.63;69.42;102008.56;7392490;19;20043;-59
2022/03/04 06:03:29;;;;;;;40.78;22.20;;;;;;;1.55;69.61;102014.50;7402133;19;20011;-58
2022/03/04 06:05:58;;;;;;;36.47;20.27;;;;;;;1.53;70.04;102010.16;7403748;19;20018;-60
2022/03/04 06:08:30;;;;;;;34.83;21.02;;;;;;;1.44;70.02;102015.22;7399641;19;20026;-60
2022/03/04 06:10:59;;;;;;;36.63;20.83;;;;;;;1.47;69.94;102020.41;7403205;19;20120;-59
2022/03/04 06:13:28;;;;;;;39.10;22.30;;;;;;;1.42;69.85;102020.38;7398207;19;20019;-61
2022/03/04 06:15:57;;;;;;;38.53;22.02;;;;;;;1.44;70.05;102022.97;7393270;19;20487;-60
2022/03/04 06:18:26;;;;;;;36.85;20.63;;;;;;;1.42;70.35;102033.28;7393640;19;20467;-60
2022/03/04 06:20:55;;;;;;;35.53;21.20;;;;;;;1.52;69.95;102031.69;7392221;19;20382;-60
2022/03/04 06:23:25;;;;;;;39.88;22.50;;;;;;;1.40;70.28;102034.09;7392837;19;20502;-59
2022/03/04 06:25:57;;;;;;;38.22;22.42;;;;;;;1.33;70.45;102026.28;7391984;19;20018;-60
2022/03/04 06:28:27;;;;;;;41.53;23.38;;;;;;;1.25;70.77;102027.00;7390006;19;20060;-59
2022/03/04 06:30:57;;;;;;;40.95;22.02;;;;;;;1.18;71.20;102026.91;7391157;19;20015;-56
2022/03/04 06:33:35;;;;;;;40.75;21.98;;;;;;;1.03;71.62;102029.28;7394234;19;20018;-59
2022/03/04 06:36:07;;;;;;;39.28;22.63;;;;;;;0.97;72.03;102029.19;7407395;19;20088;-58
2022/03/04 06:38:38;;;;;;;37.85;22.00;;;;;;;1.01;72.19;102024.09;7406929;19;20022;-61
2022/03/04 06:41:09;;;;;;;42.92;24.05;;;;;;;1.09;71.94;102034.53;7408135;19;20015;-60
2022/03/04 06:43:38;;;;;;;40.33;23.07;;;;;;;0.95;72.11;102036.91;7406901;19;20227;-58
2022/03/04 06:46:07;;;;;;;37.58;21.92;;;;;;;1.01;72.27;102037.00;7400411;19;20018;-59
2022/03/04 06:48:37;;;;;;;40.78;22.58;;;;;;;0.91;72.49;102042.88;7405931;19;20060;-59
2022/03/04 06:51:06;;;;;;;38.35;22.30;;;;;;;0.98;72.53;102041.25;7405254;19;20017;-62
2022/03/04 06:53:35;;;;;;;38.10;21.85;;;;;;;0.97;72.54;102055.00;7401168;19;20016;-59
2022/03/04 06:56:04;;;;;;;38.38;22.05;;;;;;;0.90;72.63;102048.88;7403628;19;20010;-59
2022/03/04 06:58:36;;;;;;;40.60;22.67;;;;;;;0.92;72.98;102035.97;7400542;19;20017;-58
2022/03/04 07:01:05;;;;;;;40.95;22.67;;;;;;;0.94;72.95;102045.50;7396651;19;20015;-61
2022/03/04 07:03:34;;;;;;;41.72;22.70;;;;;;;0.92;73.18;102043.72;7399283;19;20094;-59
2022/03/04 07:06:03;;;;;;;43.22;23.38;;;;;;;0.98;72.86;102054.16;7402933;19;20019;-57
2022/03/04 07:08:36;;;;;;;35.33;21.02;;;;;;;1.01;73.18;102056.78;7399392;19;20205;-57
2022/03/04 07:11:05;;;;;;;38.22;22.08;;;;;;;1.17;72.76;102060.47;7399968;19;20015;-57
2022/03/04 07:13:36;;;;;;;43.20;23.83;;;;;;;1.09;72.88;102055.19;7408571;19;20013;-58
2022/03/04 07:16:06;;;;;;;41.65;23.23;;;;;;;1.07;72.44;102061.16;7407677;19;20021;-60
2022/03/04 07:18:35;;;;;;;39.85;22.17;;;;;;;1.08;72.80;102062.91;7404832;19;20078;-55
2022/03/04 07:21:04;;;;;;;36.80;21.08;;;;;;;1.25;72.49;102063.13;7408192;19;20058;-57
2022/03/04 07:23:33;;;;;;;41.83;22.42;;;;;;;1.34;72.22;102063.28;7399345;19;20377;-58
2022/03/04 07:26:08;;;;;;;41.55;22.65;;;;;;;1.44;72.06;102065.16;7398040;19;20021;-59
2022/03/04 07:28:39;;;;;;;38.28;21.70;;;;;;;1.32;71.87;102063.25;7396472;19;20018;-56
2022/03/04 07:31:09;;;;;;;39.05;22.60;;;;;;;1.19;72.19;102072.56;7396827;19;20015;-58
2022/03/04 07:33:39;;;;;;;42.33;23.50;;;;;;;1.15;72.91;102068.19;7398699;19;20018;-60
2022/03/04 07:36:07;;;;;;;40.83;22.20;;;;;;;1.28;72.51;102060.63;7399715;19;20081;-59
2022/03/04 07:38:36;;;;;;;42.22;22.55;;;;;;;1.48;71.87;102071.25;7395713;19;20022;-61
2022/03/04 07:41:05;;;;;;;43.53;23.85;;;;;;;1.47;71.61;102077.25;7395045;19;20451;-58
2022/03/04 07:43:34;;;;;;;39.72;22.08;;;;;;;1.61;71.64;102080.03;7397244;19;20059;-57
2022/03/04 07:46:06;;;;;;;43.15;23.75;;;;;;;1.79;71.11;102087.13;7397378;19;20011;-60
2022/03/04 07:48:35;;;;;;;45.95;23.90;;;;;;;1.69;70.72;102087.03;7395659;19;20025;-62
2022/03/04 07:51:05;;;;;;;40.97;23.60;;;;;;;1.53;71.10;102090.22;7400212;19;20014;-62
2022/03/04 07:53:33;;;;;;;40.83;23.23;;;;;;;1.53;71.43;102095.41;7396953;19;20019;-61
2022/03/04 07:56:02;;;;;;;42.72;23.50;;;;;;;1.50;71.25;102095.34;7396189;19;20325;-60
2022/03/04 07:58:31;;;;;;;39.40;23.20;;;;;;;1.55;71.39;102094.56;7394702;19;20467;-62
2022/03/04 08:01:00;;;;;;;41.25;23.30;;;;;;;1.67;71.11;102093.88;7394105;19;20015;-60
2022/03/04 08:03:32;;;;;;;48.47;25.52;;;;;;;1.57;71.29;102092.00;7396559;19;20351;-58
2022/03/04 08:06:01;;;;;;;40.92;23.30;;;;;;;1.49;71.52;102103.94;7400002;19;20018;-62
2022/03/04 08:08:30;;;;;;;40.78;23.10;;;;;;;1.71;71.01;102103.41;7394997;19;20038;-61
2022/03/04 08:10:59;;;;;;;43.47;24.08;;;;;;;1.66;71.66;102106.75;7394557;19;20130;-59
2022/03/04 08:13:28;;;;;;;40.83;24.15;;;;;;;1.65;71.28;102111.06;7396649;19;20014;-61
2022/03/04 08:15:58;;;;;;;41.67;24.17;;;;;;;1.69;71.18;102111.97;7395851;19;20542;-61
2022/03/04 08:18:28;;;;;;;42.42;23.67;;;;;;;1.59;71.19;102103.25;7396094;19;20022;-62
2022/03/04 08:20:59;;;;;;;40.05;22.92;;;;;;;1.72;71.68;102105.13;7397661;19;20022;-61
2022/03/04 08:23:28;;;;;;;41.17;23.35;;;;;;;1.95;70.68;102114.03;7394269;19;20029;-62
2022/03/04 08:26:03;;;;;;;44.70;26.33;;;;;;;1.96;70.31;102111.44;7394993;19;20339;-62
2022/03/04 08:28:33;;;;;;;46.58;26.00;;;;;;;1.86;70.22;102117.38;7393413;19;20018;-60
2022/03/04 08:31:03;;;;;;;47.55;23.95;;;;;;;1.69;70.75;102117.13;7394377;19;20011;-60
2022/03/04 08:33:32;;;;;;;41.17;23.40;;;;;;;1.89;70.90;102133.78;7394130;19;20612;-61
2022/03/04 08:36:05;;;;;;;42.22;24.60;;;;;;;1.88;70.73;102118.28;7398165;19;20007;-63
2022/03/04 08:38:34;;;;;;;44.90;24.42;;;;;;;2.10;70.36;102119.38;7393951;19;20015;-59
2022/03/04 08:41:03;;;;;;;41.67;24.23;;;;;;;2.25;70.34;102116.13;7393799;19;20022;-61
2022/03/04 08:43:34;;;;;;;49.20;24.48;;;;;;;2.28;69.28;102135.97;7394385;19;20003;-62
2022/03/04 08:46:03;;;;;;;39.38;22.98;;;;;;;2.54;69.08;102129.34;7394111;19;20036;-63
2022/03/04 08:48:32;;;;;;;40.13;23.13;;;;;;;2.59;68.41;102119.94;7390937;19;20025;-60
2022/03/04 08:51:04;;;;;;;40.47;24.00;;;;;;;2.66;68.38;102117.41;7394105;19;20463;-60
2022/03/04 08:53:33;;;;;;;39.92;22.80;;;;;;;2.88;67.80;102116.75;7394858;19;20011;-59
2022/03/04 08:56:02;;;;;;;42.03;23.95;;;;;;;2.74;67.74;102119.19;7393700;19;20082;-59
2022/03/04 08:58:31;;;;;;;41.95;23.80;;;;;;;2.82;67.83;102131.34;7393623;19;20328;-55
2022/03/04 09:01:00;;;;;;;44.10;24.88;;;;;;;2.92;67.90;102118.50;7393630;19;20017;-59
2022/03/04 09:03:29;;;;;;;41.78;24.33;;;;;;;2.89;67.26;102123.63;7395782;19;20018;-56
2022/03/04 09:05:58;;;;;;;40.90;23.95;;;;;;;3.02;67.23;102124.59;7392940;19;20006;-54
2022/03/04 09:08:30;;;;;;;41.50;23.48;;;;;;;3.11;66.60;102123.84;7392321;19;20086;-58
2022/03/04 09:11:00;;;;;;;44.22;23.25;;;;;;;3.28;66.49;102124.81;7407330;19;20597;-63
2022/03/04 09:13:32;;;;;;;39.03;23.15;;;;;;;3.49;65.80;102124.97;7407911;19;20018;-59
2022/03/04 09:16:01;;;;;;;38.33;23.40;;;;;;;3.55;65.34;102122.41;7394655;19;20071;-60
2022/03/04 09:18:30;;;;;;;37.50;22.10;;;;;;;3.76;64.85;102121.66;7393206;19;20405;-55
2022/03/04 09:20:59;;;;;;;52.53;24.92;;;;;;;3.91;65.11;102126.91;7396484;19;20077;-62
2022/03/04 09:23:31;;;;;;;39.83;23.38;;;;;;;4.00;64.39;102128.69;7392874;19;20037;-58
2022/03/04 09:26:00;;;;;;;41.75;24.20;;;;;;;4.11;64.20;102124.41;7393932;19;20021;-57
2022/03/04 09:28:30;;;;;;;48.53;23.00;;;;;;;4.30;63.53;102130.50;7395221;19;20017;-64
2022/03/04 09:30:59;;;;;;;42.30;22.75;;;;;;;4.41;63.15;102133.13;7391811;19;20395;-61
2022/03/04 09:33:28;;;;;;;44.15;24.08;;;;;;;4.42;62.22;102137.47;7393676;19;20032;-56
2022/03/04 09:36:00;;;;;;;41.75;24.67;;;;;;;4.52;63.37;102130.56;7392628;19;20016;-61
2022/03/04 09:38:31;;;;;;;38.92;24.17;;;;;;;4.36;63.01;102128.81;7395588;19;20052;-61
2022/03/04 09:41:01;;;;;;;41.00;23.45;;;;;;;4.42;63.39;102118.44;7394355;19;20026;-61
2022/03/04 09:43:30;;;;;;;41.35;23.65;;;;;;;4.64;62.84;102116.72;7392123;19;20022;-62
2022/03/04 09:46:00;;;;;;;42.40;23.73;;;;;;;4.86;62.27;102112.44;7391728;19;20529;-62
2022/03/04 09:48:30;;;;;;;39.42;23.73;;;;;;;4.87;61.48;102118.50;7391633;19;20014;-58
2022/03/04 09:50:59;;;;;;;41.50;23.88;;;;;;;4.89;61.46;102120.22;7389719;19;20060;-63
2022/03/04 09:53:30;;;;;;;40.08;24.15;;;;;;;4.90;61.17;102113.28;7391368;19;20014;-62
2022/03/04 09:55:59;;;;;;;42.28;24.83;;;;;;;4.93;61.22;102114.16;7394690;19;20021;-61
2022/03/04 09:58:28;;;;;;;39.95;23.70;;;;;;;4.79;60.76;102116.75;7389818;19;20538;-61
2022/03/04 10:00:58;;;;;;;39.85;24.45;;;;;;;5.08;60.79;102109.84;7391456;19;20099;-56
2022/03/04 10:03:45;;;;;;;42.95;25.45;;;;;;;5.15;60.18;102109.81;7392858;19;20018;-56
2022/03/04 10:06:15;;;;;;;41.08;24.77;;;;;;;5.10;60.72;102100.28;7390908;19;20022;-58
2022/03/04 10:08:49;;;;;;;41.45;24.75;;;;;;;5.18;60.68;102098.56;7390616;19;20025;-59
2022/03/04 10:11:29;;;;;;;41.80;24.52;;;;;;;5.38;60.26;102101.13;7390417;19;20401;-61
2022/03/04 10:14:00;;;;;;;39.00;23.50;;;;;;;5.55;60.25;102107.16;7393332;19;20077;-61
2022/03/04 10:16:31;;;;;;;41.63;24.38;;;;;;;5.72;59.34;102106.25;7389160;19;20038;-60
2022/03/04 10:19:13;;;;;;;37.67;23.60;;;;;;;5.70;58.98;102114.06;7389479;19;20038;-63
2022/03/04 10:21:50;;;;;;;40.90;24.52;;;;;;;5.74;59.04;102106.25;7394657;19;20018;-56
2022/03/04 10:24:23;;;;;;;41.35;23.77;;;;;;;5.87;58.75;102107.91;7395508;19;20699;-61
2022/03/04 10:27:04;;;;;;;37.25;23.13;;;;;;;5.99;58.92;102104.44;7396772;19;20467;-60
2022/03/04 10:29:36;;;;;;;43.33;24.35;;;;;;;6.22;57.65;102094.78;7393211;19;20021;-55
2022/03/04 10:32:20;;;;;;;43.35;24.77;;;;;;;6.30;57.51;102099.94;7395683;19;20006;-59
2022/03/04 10:34:55;;;;;;;37.47;23.33;;;;;;;6.19;57.79;102091.31;7398207;19;20015;-57
2022/03/04 10:37:25;;;;;;;43.40;25.20;;;;;;;6.35;57.69;102089.53;7395448;19;20022;-58
2022/03/04 10:40:07;;;;;;;54.95;25.65;;;;;;;6.49;57.52;102087.69;7392329;19;20019;-61
2022/03/04 10:42:45;;;;;;;43.08;24.17;;;;;;;6.54;56.63;102095.47;7394117;19;20014;-58
2022/03/04 10:45:16;;;;;;;45.75;24.10;;;;;;;6.54;56.71;102098.06;7395627;19;20019;-58
2022/03/04 10:47:49;;;;;;;;;;;;;;;6.71;56.19;102092.75;7395724;19;20070;-56
2022/03/04 10:50:19;;;;;;;35.85;22.50;;;;;;;6.78;55.02;102094.41;7399108;19;19923;-58
2022/03/04 10:52:50;;;;;;;43.13;23.60;;;;;;;6.76;56.27;102098.75;7394549;19;20120;-59
2022/03/04 10:55:34;;;;;;;42.42;23.80;;;;;;;6.79;55.56;102095.28;7394240;19;20025;-63
2022/03/04 10:58:05;;;;;;;39.40;23.77;;;;;;;6.78;55.01;102101.34;7393589;19;20523;-62
2022/03/04 11:00:35;;;;;;;43.90;24.52;;;;;;;6.79;54.61;102093.56;7393751;19;20034;-60
2022/03/04 11:03:05;;;;;;;39.15;24.40;;;;;;;6.81;54.63;102083.97;7393245;19;20355;-62
2022/03/04 11:05:34;;;;;;;45.88;26.58;;;;;;;6.63;55.61;102084.97;7394581;19;20015;-59
2022/03/04 11:08:04;;;;;;;41.38;24.17;;;;;;;6.76;55.31;102088.34;7393497;19;20014;-62
2022/03/04 11:10:35;;;;;;;40.10;24.17;;;;;;;6.73;55.09;102083.16;7392408;19;20010;-62
2022/03/04 11:13:06;;;;;;;41.90;25.27;;;;;;;6.76;55.50;102080.53;7403450;19;20022;-62
2022/03/04 11:15:36;;;;;;;42.67;24.45;;;;;;;6.89;55.48;102079.56;7406857;19;20075;-62
2022/03/04 11:18:08;;;;;;;41.53;25.60;;;;;;;7.12;54.91;102072.41;7392904;19;20370;-59
2022/03/04 11:20:38;;;;;;;38.58;24.17;;;;;;;7.22;54.48;102072.31;7397983;19;20011;-59
2022/03/04 11:23:09;;;;;;;42.80;25.15;;;;;;;7.35;53.45;102077.38;7391400;19;20018;-58
2022/03/04 11:25:43;;;;;;;41.38;24.75;;;;;;;7.32;53.47;102069.59;7393378;19;20011;-58
2022/03/04 11:28:14;;;;;;;39.22;24.08;;;;;;;7.17;53.59;102068.88;7392910;19;20015;-58
2022/03/04 11:30:46;;;;;;;35.03;23.50;;;;;;;7.21;53.07;102064.50;7391884;19;20021;-59
2022/03/04 11:33:20;;;;;;;44.40;24.85;;;;;;;7.31;52.36;102063.53;7393195;19;20029;-58
2022/03/04 11:36:02;;;;;;;39.03;24.40;;;;;;;7.30;52.77;102068.75;7392806;19;20015;-59